createdAt,value
2023-12-03T00:00:57.382Z,18.07
2023-12-03T00:03:24.809Z,17.00
2023-12-03T00:05:51.944Z,24.03
2023-12-03T00:08:19.355Z,17.40
2023-12-03T00:10:46.291Z,17.53
2023-12-03T00:13:13.229Z,16.97
2023-12-03T00:15:41.538Z,20.73
2023-12-03T00:18:08.680Z,17.27
2023-12-03T00:20:35.755Z,18.43
2023-12-03T00:23:04.194Z,18.50
2023-12-03T00:25:31.082Z,16.63
2023-12-03T00:27:57.967Z,18.43
2023-12-03T00:30:24.956Z,19.10
2023-12-03T00:32:53.217Z,19.37
2023-12-03T00:35:20.144Z,21.03
2023-12-03T00:37:47.066Z,18.87
2023-12-03T00:40:14.155Z,20.33
2023-12-03T00:42:41.093Z,18.57
2023-12-03T00:45:09.300Z,20.90
2023-12-03T00:47:36.171Z,17.30
2023-12-03T00:50:05.197Z,21.33
2023-12-03T00:52:32.082Z,19.63
2023-12-03T00:54:58.953Z,17.27
2023-12-03T00:57:25.920Z,19.83
2023-12-03T00:59:53.105Z,19.50
2023-12-03T01:02:20.065Z,17.87
2023-12-03T01:04:47.125Z,20.90
2023-12-03T01:07:15.570Z,17.27
2023-12-03T01:09:42.550Z,19.37
2023-12-03T01:12:09.604Z,19.23
2023-12-03T01:14:36.498Z,20.33
2023-12-03T01:17:03.473Z,21.03
2023-12-03T01:19:30.601Z,21.03
2023-12-03T01:21:57.669Z,18.83
2023-12-03T01:24:25.962Z,20.43
2023-12-03T01:26:52.837Z,20.87
2023-12-03T01:29:19.700Z,22.03
2023-12-03T01:31:46.914Z,19.77
2023-12-03T01:34:14.165Z,18.07
2023-12-03T01:36:41.123Z,20.97
2023-12-03T01:39:08.126Z,20.07
2023-12-03T01:41:36.452Z,17.73
2023-12-03T01:44:03.350Z,19.33
2023-12-03T01:46:30.675Z,19.17
2023-12-03T01:48:57.641Z,17.03
2023-12-03T01:51:24.895Z,20.50
2023-12-03T01:53:52.305Z,18.63
2023-12-03T01:56:19.165Z,19.33
2023-12-03T01:58:47.558Z,18.43
2023-12-03T02:01:14.578Z,21.07
2023-12-03T02:03:41.489Z,19.60
2023-12-03T02:06:10.910Z,20.20
2023-12-03T02:08:38.403Z,24.10
2023-12-03T02:11:06.766Z,19.23
2023-12-03T02:13:37.403Z,21.63
2023-12-03T02:16:06.762Z,21.50
2023-12-03T02:18:34.547Z,17.90
2023-12-03T02:21:02.009Z,21.47
2023-12-03T02:23:30.806Z,16.13
2023-12-03T02:25:57.740Z,17.73
2023-12-03T02:28:24.707Z,20.90
2023-12-03T02:30:51.891Z,21.23
2023-12-03T02:33:18.992Z,22.60
2023-12-03T02:35:45.894Z,18.03
2023-12-03T02:38:12.843Z,21.10
2023-12-03T02:40:41.262Z,21.27
2023-12-03T02:43:08.318Z,20.47
2023-12-03T02:45:35.350Z,24.07
2023-12-03T02:48:02.433Z,21.10
2023-12-03T02:50:29.422Z,21.90
2023-12-03T02:52:56.413Z,19.20
2023-12-03T02:55:23.353Z,20.43
2023-12-03T02:57:52.123Z,21.50
2023-12-03T03:00:19.930Z,17.60
2023-12-03T03:02:46.852Z,24.50
2023-12-03T03:05:13.698Z,21.53
2023-12-03T03:07:40.561Z,25.23
2023-12-03T03:10:09.144Z,19.80
2023-12-03T03:12:36.073Z,21.43
2023-12-03T03:15:05.278Z,23.50
2023-12-03T03:17:32.183Z,24.23
2023-12-03T03:19:59.114Z,18.83
2023-12-03T03:22:25.941Z,21.57
2023-12-03T03:24:53.563Z,21.70
2023-12-03T03:27:20.620Z,19.83
2023-12-03T03:29:47.561Z,19.37
2023-12-03T03:32:15.862Z,23.40
2023-12-03T03:34:42.821Z,23.13
2023-12-03T03:37:09.780Z,19.63
2023-12-03T03:39:36.715Z,19.80
2023-12-03T03:42:04.680Z,21.97
2023-12-03T03:44:31.610Z,19.80
2023-12-03T03:46:58.453Z,21.63
2023-12-03T03:49:26.696Z,20.30
2023-12-03T03:51:53.664Z,22.60
2023-12-03T03:54:20.588Z,22.33
2023-12-03T03:56:50.633Z,18.83
2023-12-03T03:59:17.574Z,21.30
2023-12-03T04:01:45.025Z,20.50
2023-12-03T04:04:12.355Z,22.07
2023-12-03T04:06:41.739Z,24.33
2023-12-03T04:09:08.850Z,21.33
2023-12-03T04:11:39.716Z,21.80
2023-12-03T04:14:07.296Z,23.07
2023-12-03T04:16:34.611Z,24.40
2023-12-03T04:19:01.961Z,24.60
2023-12-03T04:21:28.954Z,25.03
2023-12-03T04:23:57.506Z,24.90
2023-12-03T04:26:24.749Z,24.87
2023-12-03T04:28:51.795Z,27.50
2023-12-03T04:31:21.139Z,23.97
2023-12-03T04:33:48.080Z,26.40
2023-12-03T04:36:15.740Z,23.37
2023-12-03T04:38:43.022Z,24.03
2023-12-03T04:41:11.543Z,23.13
2023-12-03T04:43:38.537Z,22.47
2023-12-03T04:46:06.103Z,24.07
2023-12-03T04:48:33.373Z,24.10
2023-12-03T04:51:00.371Z,23.17
2023-12-03T04:53:27.288Z,24.07
2023-12-03T04:55:54.423Z,22.00
2023-12-03T04:58:22.729Z,25.97
2023-12-03T05:00:50.036Z,24.60
2023-12-03T05:03:16.978Z,23.07
2023-12-03T05:05:43.906Z,22.80
2023-12-03T05:08:10.909Z,27.93
2023-12-03T05:10:37.855Z,26.50
2023-12-03T05:13:04.769Z,26.10
2023-12-03T05:15:33.063Z,29.60
2023-12-03T05:18:00.015Z,25.63
2023-12-03T05:20:26.989Z,27.27
2023-12-03T05:22:54.710Z,26.53
2023-12-03T05:25:21.808Z,25.90
2023-12-03T05:27:48.719Z,31.83
2023-12-03T05:30:16.348Z,29.10
2023-12-03T05:32:45.025Z,30.40
2023-12-03T05:35:12.079Z,31.30
2023-12-03T05:37:40.090Z,27.07
2023-12-03T05:40:09.755Z,30.13
2023-12-03T05:42:36.719Z,30.37
2023-12-03T05:45:05.100Z,28.50
2023-12-03T05:47:32.383Z,31.37
2023-12-03T05:50:02.277Z,30.37
2023-12-03T05:52:29.495Z,37.37
2023-12-03T05:54:56.538Z,37.63
2023-12-03T05:57:23.551Z,26.50
2023-12-03T05:59:51.072Z,33.43
2023-12-03T06:02:18.130Z,32.63
2023-12-03T06:04:45.109Z,35.10
2023-12-03T06:07:13.536Z,33.77
2023-12-03T06:09:40.999Z,35.00
2023-12-03T06:12:08.225Z,33.30
2023-12-03T06:14:35.127Z,34.37
2023-12-03T06:17:02.638Z,36.80
2023-12-03T06:19:29.609Z,36.27
2023-12-03T06:21:58.954Z,37.37
2023-12-03T06:24:27.484Z,37.70
2023-12-03T06:26:55.376Z,36.87
2023-12-03T06:29:22.303Z,31.43
2023-12-03T06:31:49.490Z,35.97
2023-12-03T06:34:16.865Z,32.27
2023-12-03T06:36:43.974Z,30.90
2023-12-03T06:39:11.178Z,32.20
2023-12-03T06:41:39.658Z,32.10
2023-12-03T06:44:06.985Z,36.30
2023-12-03T06:46:40.479Z,37.57
2023-12-03T06:49:07.682Z,35.33
2023-12-03T06:51:35.127Z,39.10
2023-12-03T06:54:03.580Z,40.00
2023-12-03T06:56:30.517Z,36.10
2023-12-03T06:58:58.811Z,37.60
2023-12-03T07:01:25.766Z,42.50
2023-12-03T07:03:53.684Z,39.03
2023-12-03T07:06:20.900Z,40.40
2023-12-03T07:08:47.880Z,41.20
2023-12-03T07:11:15.074Z,41.40
2023-12-03T07:13:42.919Z,38.70
2023-12-03T07:16:11.970Z,37.20
2023-12-03T07:18:42.498Z,41.03
2023-12-03T07:21:10.268Z,41.37
2023-12-03T07:23:37.208Z,35.27
2023-12-03T07:26:09.676Z,38.67
2023-12-03T07:28:36.607Z,38.43
2023-12-03T07:31:04.110Z,37.73
2023-12-03T07:33:33.460Z,44.63
2023-12-03T07:36:00.585Z,36.20
2023-12-03T07:38:28.126Z,38.63
2023-12-03T07:40:55.011Z,37.60
2023-12-03T07:43:21.987Z,39.33
2023-12-03T07:45:48.967Z,43.43
2023-12-03T07:48:15.943Z,41.17
2023-12-03T07:50:44.252Z,37.53
2023-12-03T07:53:12.176Z,41.80
2023-12-03T07:55:39.124Z,40.87
2023-12-03T07:58:06.086Z,37.07
2023-12-03T08:00:33.021Z,39.80
2023-12-03T08:02:59.958Z,36.27
2023-12-03T08:05:26.856Z,41.67
2023-12-03T08:07:55.207Z,42.10
2023-12-03T08:10:22.140Z,38.37
2023-12-03T08:12:49.171Z,33.77
2023-12-03T08:15:16.382Z,37.17
2023-12-03T08:17:43.398Z,39.77
2023-12-03T08:20:11.606Z,38.37
2023-12-03T08:22:38.470Z,43.00
2023-12-03T08:25:11.937Z,36.07
2023-12-03T08:27:39.514Z,38.40
2023-12-03T08:30:07.759Z,40.07
2023-12-03T08:32:34.638Z,42.27
2023-12-03T08:35:01.532Z,39.00
2023-12-03T08:37:28.572Z,39.03
2023-12-03T08:39:55.558Z,40.70
2023-12-03T08:42:23.818Z,43.90
2023-12-03T08:44:53.087Z,41.57
2023-12-03T08:47:20.859Z,42.13
2023-12-03T08:49:47.945Z,41.00
2023-12-03T08:52:16.420Z,40.93
2023-12-03T08:54:43.426Z,39.93
2023-12-03T08:57:10.402Z,40.83
2023-12-03T08:59:39.331Z,39.17
2023-12-03T09:02:06.828Z,37.20
2023-12-03T09:04:33.745Z,37.67
2023-12-03T09:07:01.588Z,36.67
2023-12-03T09:09:28.589Z,32.90
2023-12-03T09:11:56.105Z,36.67
2023-12-03T09:14:23.126Z,36.77
2023-12-03T09:16:51.401Z,33.20
2023-12-03T09:19:18.308Z,39.53
2023-12-03T09:21:45.219Z,35.23
2023-12-03T09:24:12.771Z,37.83
2023-12-03T09:26:39.632Z,34.80
2023-12-03T09:29:06.769Z,33.00
2023-12-03T09:31:33.716Z,34.13
2023-12-03T09:34:02.031Z,33.17
2023-12-03T09:36:29.172Z,29.77
2023-12-03T09:38:56.106Z,33.27
2023-12-03T09:41:23.962Z,33.77
2023-12-03T09:43:55.264Z,36.10
2023-12-03T09:46:24.441Z,31.70
2023-12-03T09:48:54.212Z,32.10
2023-12-03T09:51:22.667Z,29.93
2023-12-03T09:53:51.466Z,36.00
2023-12-03T09:56:20.906Z,31.03
2023-12-03T09:58:49.439Z,32.07
2023-12-03T10:01:17.813Z,34.80
2023-12-03T10:03:44.779Z,31.47
2023-12-03T10:06:12.684Z,31.03
2023-12-03T10:08:43.254Z,27.57
2023-12-03T10:11:14.904Z,30.87
2023-12-03T10:13:42.126Z,28.23
2023-12-03T10:16:11.761Z,28.20
2023-12-03T10:18:38.789Z,29.70
2023-12-03T10:21:07.098Z,31.47
2023-12-03T10:23:35.011Z,31.03
2023-12-03T10:26:11.568Z,28.27
2023-12-03T10:28:39.176Z,29.70
2023-12-03T10:31:07.110Z,26.43
2023-12-03T10:33:34.724Z,29.07
2023-12-03T10:36:05.641Z,26.83
2023-12-03T10:38:40.276Z,31.87
2023-12-03T10:41:08.604Z,30.13
2023-12-03T10:43:38.243Z,27.97
2023-12-03T10:46:06.273Z,28.03
2023-12-03T10:48:35.214Z,26.40
2023-12-03T10:51:05.893Z,32.73
2023-12-03T10:53:34.147Z,26.93
2023-12-03T10:56:02.423Z,28.63
2023-12-03T10:58:31.408Z,28.27
2023-12-03T11:01:05.834Z,27.53
2023-12-03T11:03:53.394Z,29.70
2023-12-03T11:06:23.539Z,28.10
2023-12-03T11:08:52.659Z,34.07
2023-12-03T11:11:21.766Z,27.93
2023-12-03T11:13:51.591Z,33.57
2023-12-03T11:16:20.607Z,29.20
2023-12-03T11:18:52.167Z,30.40
2023-12-03T11:21:25.791Z,28.43
2023-12-03T11:24:24.738Z,33.33
2023-12-03T11:26:51.820Z,29.93
2023-12-03T11:29:18.750Z,28.13
2023-12-03T11:31:47.007Z,31.93
2023-12-03T11:34:14.193Z,33.87
2023-12-03T11:36:49.451Z,29.97
2023-12-03T11:39:19.516Z,34.53
2023-12-03T11:41:46.602Z,27.70
2023-12-03T11:44:20.629Z,28.90
2023-12-03T11:46:50.633Z,30.73
2023-12-03T11:49:18.650Z,34.03
2023-12-03T11:51:47.818Z,30.93
2023-12-03T11:54:25.957Z,31.73
2023-12-03T11:56:54.111Z,27.53
2023-12-03T11:59:21.149Z,32.80
2023-12-03T12:01:49.469Z,28.47
2023-12-03T12:04:21.498Z,28.70
2023-12-03T12:06:48.496Z,31.20
2023-12-03T12:09:22.885Z,43.97
2023-12-03T12:11:50.813Z,27.03
2023-12-03T12:14:18.411Z,32.87
2023-12-03T12:16:46.142Z,30.93
2023-12-03T12:19:15.235Z,31.13
2023-12-03T12:21:53.053Z,27.30
2023-12-03T12:24:20.281Z,28.80
2023-12-03T12:26:47.721Z,29.63
2023-12-03T12:29:14.883Z,29.63
2023-12-03T12:31:42.000Z,30.07
2023-12-03T12:34:10.621Z,30.10
2023-12-03T12:36:38.941Z,30.77
2023-12-03T12:39:05.910Z,28.60
2023-12-03T12:41:39.267Z,33.10
2023-12-03T12:44:06.252Z,28.30
2023-12-03T12:46:34.989Z,30.00
2023-12-03T12:49:13.367Z,30.17
2023-12-03T12:51:41.756Z,29.63
2023-12-03T12:54:09.433Z,28.83
2023-12-03T12:56:36.701Z,28.70
2023-12-03T12:59:04.235Z,27.63
2023-12-03T13:01:31.763Z,24.10
2023-12-03T13:03:58.989Z,25.60
2023-12-03T13:06:27.528Z,28.57
2023-12-03T13:08:55.782Z,24.63
2023-12-03T13:11:24.647Z,28.40
2023-12-03T13:13:51.556Z,32.47
2023-12-03T13:16:18.622Z,21.97
2023-12-03T13:18:45.769Z,27.00
2023-12-03T13:21:12.811Z,24.53
2023-12-03T13:23:39.768Z,25.97
2023-12-03T13:26:09.140Z,26.73
2023-12-03T13:28:36.149Z,30.53
2023-12-03T13:31:03.068Z,29.17
2023-12-03T13:33:31.090Z,27.63
2023-12-03T13:35:58.097Z,26.30
2023-12-03T13:38:25.034Z,25.27
2023-12-03T13:40:51.970Z,26.60
2023-12-03T13:43:20.514Z,28.03
2023-12-03T13:45:47.846Z,27.17
2023-12-03T13:48:14.794Z,25.97
2023-12-03T13:50:41.663Z,27.37
2023-12-03T13:53:08.946Z,25.97
2023-12-03T13:55:35.949Z,27.33
2023-12-03T13:58:03.525Z,30.97
2023-12-03T14:00:31.928Z,28.57
2023-12-03T14:02:59.064Z,25.70
2023-12-03T14:05:26.234Z,29.87
2023-12-03T14:07:54.644Z,27.73
2023-12-03T14:10:23.086Z,25.90
2023-12-03T14:12:50.002Z,26.80
2023-12-03T14:15:17.679Z,25.80
2023-12-03T14:17:46.032Z,26.17
2023-12-03T14:20:13.128Z,29.10
2023-12-03T14:22:41.487Z,29.13
2023-12-03T14:25:09.658Z,25.73
2023-12-03T14:27:36.669Z,27.17
2023-12-03T14:30:04.167Z,32.43
2023-12-03T14:32:31.175Z,25.87
2023-12-03T14:34:59.613Z,24.03
2023-12-03T14:37:26.685Z,25.13
2023-12-03T14:39:53.811Z,24.67
2023-12-03T14:42:22.377Z,23.40
2023-12-03T14:44:49.658Z,26.53
2023-12-03T14:47:17.185Z,26.53
2023-12-03T14:49:44.473Z,29.23
2023-12-03T14:52:12.691Z,29.27
2023-12-03T14:54:41.260Z,22.13
2023-12-03T14:57:08.261Z,29.37
2023-12-03T14:59:35.250Z,27.60
2023-12-03T15:02:02.701Z,27.87
2023-12-03T15:04:29.563Z,26.80
2023-12-03T15:06:57.861Z,28.33
2023-12-03T15:09:26.344Z,24.83
2023-12-03T15:11:53.624Z,26.03
2023-12-03T15:14:21.607Z,29.33
2023-12-03T15:16:48.636Z,25.33
2023-12-03T15:19:15.593Z,27.57
2023-12-03T15:21:42.512Z,30.17
2023-12-03T15:24:09.850Z,29.20
2023-12-03T15:26:38.160Z,24.60
2023-12-03T15:29:05.146Z,30.90
2023-12-03T15:31:32.046Z,27.13
2023-12-03T15:33:59.039Z,32.27
2023-12-03T15:36:26.189Z,27.30
2023-12-03T15:38:53.087Z,25.70
2023-12-03T15:41:20.118Z,25.20
2023-12-03T15:43:48.372Z,27.20
2023-12-03T15:46:15.676Z,28.03
2023-12-03T15:48:42.784Z,29.13
2023-12-03T15:51:10.258Z,29.33
2023-12-03T15:53:37.239Z,28.73
2023-12-03T15:56:05.275Z,30.33
2023-12-03T15:58:32.251Z,33.23
2023-12-03T16:01:00.755Z,32.23
2023-12-03T16:03:27.815Z,30.47
2023-12-03T16:05:55.078Z,29.73
2023-12-03T16:08:21.984Z,27.77
2023-12-03T16:10:50.097Z,30.60
2023-12-03T16:13:17.233Z,28.80
2023-12-03T16:15:44.125Z,28.03
2023-12-03T16:18:12.640Z,32.30
2023-12-03T16:20:39.667Z,28.07
2023-12-03T16:23:07.980Z,27.97
2023-12-03T16:25:35.832Z,31.90
2023-12-03T16:28:02.788Z,28.13
2023-12-03T16:30:30.639Z,32.63
2023-12-03T16:32:57.800Z,32.50
2023-12-03T16:35:26.169Z,29.80
2023-12-03T16:37:53.229Z,29.37
2023-12-03T16:40:22.966Z,29.70
2023-12-03T16:42:49.935Z,30.73
2023-12-03T16:45:16.853Z,29.10
2023-12-03T16:47:43.875Z,27.43
2023-12-03T16:50:11.716Z,32.43
2023-12-03T16:52:39.947Z,30.10
2023-12-03T16:55:07.853Z,30.33
2023-12-03T16:57:35.003Z,27.47
2023-12-03T17:00:02.137Z,32.13
2023-12-03T17:02:29.238Z,32.23
2023-12-03T17:04:56.541Z,36.83
2023-12-03T17:07:23.467Z,32.27
2023-12-03T17:09:51.791Z,44.47
2023-12-03T17:12:18.708Z,33.73
2023-12-03T17:14:47.220Z,31.03
2023-12-03T17:17:14.205Z,31.27
2023-12-03T17:19:41.273Z,29.53
2023-12-03T17:22:08.333Z,35.47
2023-12-03T17:24:35.230Z,37.03
2023-12-03T17:27:03.600Z,35.33
2023-12-03T17:29:31.659Z,30.20
2023-12-03T17:31:58.579Z,31.47
2023-12-03T17:34:25.626Z,33.27
2023-12-03T17:36:52.759Z,30.70
2023-12-03T17:39:19.799Z,31.57
2023-12-03T17:41:46.675Z,40.80
2023-12-03T17:44:15.385Z,37.67
2023-12-03T17:46:42.339Z,38.83
2023-12-03T17:49:09.273Z,33.27
2023-12-03T17:51:36.905Z,33.27
2023-12-03T17:54:04.093Z,34.23
2023-12-03T17:56:30.956Z,33.37
2023-12-03T17:58:58.639Z,33.63
2023-12-03T18:01:27.126Z,39.10
2023-12-03T18:03:54.161Z,34.87
2023-12-03T18:06:21.156Z,35.10
2023-12-03T18:08:48.639Z,32.77
2023-12-03T18:11:15.835Z,35.30
2023-12-03T18:13:42.817Z,38.93
2023-12-03T18:16:12.311Z,38.27
2023-12-03T18:18:40.767Z,37.90
2023-12-03T18:21:07.995Z,38.13
2023-12-03T18:23:36.222Z,38.03
2023-12-03T18:26:03.219Z,41.80
2023-12-03T18:28:30.109Z,38.73
2023-12-03T18:30:57.715Z,33.50
2023-12-03T18:33:24.930Z,30.20
2023-12-03T18:35:54.215Z,35.73
2023-12-03T18:38:21.094Z,34.07
2023-12-03T18:40:51.106Z,32.27
2023-12-03T18:43:18.720Z,33.03
2023-12-03T18:45:46.310Z,30.70
2023-12-03T18:48:13.362Z,30.47
2023-12-03T18:50:40.334Z,38.50
2023-12-03T18:53:10.706Z,33.00
2023-12-03T18:55:38.021Z,33.67
2023-12-03T18:58:05.023Z,32.63
2023-12-03T19:00:32.154Z,37.90
2023-12-03T19:02:59.253Z,35.33
2023-12-03T19:05:26.306Z,38.27
2023-12-03T19:08:00.407Z,40.03
2023-12-03T19:10:28.892Z,35.07
2023-12-03T19:13:00.013Z,34.73
2023-12-03T19:15:32.614Z,36.23
2023-12-03T19:17:59.641Z,34.87
2023-12-03T19:20:26.703Z,40.80
2023-12-03T19:22:54.615Z,36.17
2023-12-03T19:25:21.543Z,33.47
2023-12-03T19:27:49.785Z,36.40
2023-12-03T19:30:16.842Z,37.00
2023-12-03T19:32:43.855Z,32.20
2023-12-03T19:35:10.796Z,33.17
2023-12-03T19:37:37.733Z,35.47
2023-12-03T19:40:05.766Z,36.80
2023-12-03T19:42:32.887Z,38.13
2023-12-03T19:45:01.176Z,34.00
2023-12-03T19:47:28.119Z,38.00
2023-12-03T19:49:55.024Z,35.53
2023-12-03T19:52:21.928Z,30.83
2023-12-03T19:54:48.974Z,33.30
2023-12-03T19:57:16.601Z,32.77
2023-12-03T19:59:44.180Z,31.10
2023-12-03T20:02:12.397Z,29.93
2023-12-03T20:04:39.394Z,29.10
2023-12-03T20:07:06.418Z,23.30
2023-12-03T20:09:33.497Z,25.57
2023-12-03T20:12:00.871Z,27.23
2023-12-03T20:14:27.969Z,27.13
2023-12-03T20:16:54.943Z,25.13
2023-12-03T20:19:23.930Z,26.70
2023-12-03T20:21:50.937Z,23.70
2023-12-03T20:24:17.855Z,26.83
2023-12-03T20:26:45.179Z,24.87
2023-12-03T20:29:12.908Z,25.50
2023-12-03T20:31:39.884Z,26.87
2023-12-03T20:34:07.039Z,29.90
2023-12-03T20:36:37.628Z,30.20
2023-12-03T20:39:08.266Z,25.40
2023-12-03T20:41:35.413Z,26.17
2023-12-03T20:44:03.228Z,27.07
2023-12-03T20:46:30.358Z,24.50
2023-12-03T20:48:58.190Z,27.27
2023-12-03T20:51:26.081Z,26.90
2023-12-03T20:53:54.448Z,21.17
2023-12-03T20:56:21.418Z,24.03
2023-12-03T20:58:48.351Z,24.33
2023-12-03T21:01:15.535Z,25.63
2023-12-03T21:03:42.958Z,25.53
2023-12-03T21:06:10.395Z,25.43
2023-12-03T21:08:37.368Z,25.83
2023-12-03T21:11:06.389Z,26.00
2023-12-03T21:13:33.441Z,24.10
2023-12-03T21:16:03.299Z,30.67
2023-12-03T21:18:31.112Z,29.43
2023-12-03T21:20:58.200Z,27.03
2023-12-03T21:23:25.087Z,33.13
2023-12-03T21:25:52.064Z,23.83
2023-12-03T21:28:23.409Z,26.67
2023-12-03T21:30:51.123Z,28.07
2023-12-03T21:33:18.234Z,26.70
2023-12-03T21:35:45.271Z,29.30
2023-12-03T21:38:13.963Z,30.53
2023-12-03T21:40:43.368Z,25.67
2023-12-03T21:43:10.483Z,23.40
2023-12-03T21:45:38.969Z,21.90
2023-12-03T21:48:06.474Z,23.73
2023-12-03T21:50:33.727Z,22.43
2023-12-03T21:53:01.312Z,43.53
2023-12-03T21:55:28.205Z,22.80
2023-12-03T21:57:55.193Z,23.37
2023-12-03T22:00:22.327Z,26.63
2023-12-03T22:02:50.694Z,23.00
2023-12-03T22:05:17.560Z,23.90
2023-12-03T22:07:44.506Z,23.63
2023-12-03T22:10:12.439Z,23.47
2023-12-03T22:12:39.503Z,22.03
2023-12-03T22:15:07.774Z,24.77
2023-12-03T22:17:35.179Z,24.33
2023-12-03T22:20:04.726Z,25.53
2023-12-03T22:22:31.728Z,26.80
2023-12-03T22:24:58.645Z,23.80
2023-12-03T22:27:25.681Z,23.33
2023-12-03T22:29:57.090Z,26.07
2023-12-03T22:32:30.064Z,22.67
2023-12-03T22:34:58.054Z,26.90
2023-12-03T22:37:26.324Z,24.53
2023-12-03T22:39:53.274Z,25.03
2023-12-03T22:42:20.204Z,24.97
2023-12-03T22:44:47.121Z,27.67
2023-12-03T22:47:14.203Z,23.87
2023-12-03T22:49:43.292Z,24.03
2023-12-03T22:52:10.346Z,25.53
2023-12-03T22:54:38.793Z,23.40
2023-12-03T22:57:05.746Z,26.83
2023-12-03T22:59:32.614Z,21.37
2023-12-03T23:01:59.550Z,23.90
2023-12-03T23:04:26.634Z,23.67
2023-12-03T23:06:53.657Z,23.07
2023-12-03T23:09:20.542Z,23.20
2023-12-03T23:11:48.765Z,24.33
2023-12-03T23:14:15.676Z,20.43
2023-12-03T23:16:42.910Z,25.20
2023-12-03T23:19:10.434Z,23.60
2023-12-03T23:21:37.641Z,22.60
2023-12-03T23:24:06.304Z,20.30
2023-12-03T23:26:35.386Z,21.97
2023-12-03T23:29:03.718Z,21.90
2023-12-03T23:31:30.686Z,20.53
2023-12-03T23:33:58.083Z,21.13
2023-12-03T23:36:25.048Z,21.50
2023-12-03T23:38:52.158Z,23.17
2023-12-03T23:41:19.185Z,20.07
2023-12-03T23:43:46.118Z,23.77
2023-12-03T23:46:14.355Z,23.30
2023-12-03T23:48:41.372Z,21.33
2023-12-03T23:51:08.432Z,24.97
2023-12-03T23:53:36.703Z,23.27
2023-12-03T23:56:04.186Z,22.00
2023-12-03T23:58:31.141Z,22.17
